Fort Benton (79S)
Fort Benton, MT
Field Elevation: 2868
Lat: 47°50.71N  Long: 110°38.19W
CTAF/Unicom Freq: 122.8000
   
     For Weather-by-Phone, call 406-622-5976
Weather Advisories
2019-07-18   22:04 Z
Altimeter 29.70" Hg
Wind 030° @ 24 KT
Gusts 38 KT
Visibility --
Temperature 27° C (81° F)
Dewpoint 4° C (39° F)
Relative Humidity 23%
Density Altitude 5,100 feet
Condensation Altitude 14,300 feet
Heat Index: 26° C (79° F)
Wind and Runways
Indicated Runway = 05
Headwind = 23 kt
Crosswind = 8 kt
History
 
 
 
More Info
NOAA Forecast
 
 
About Us
Belfort Instrument
 
 
FAA Disclaimer: The data displayed is for advisory purposes only and is not to be used for flight planning or operations. For official data, please call 406-622-5976 to hear the current automated AWOS voice message.
  METAR 79S 182204Z AUTO 03024G38KT 27/04 A2970